Time;durP1;ratioP1;P1;durP2;ratioP2;P2;SDS_P1;SDS_P2;PMS_P1;PMS_P2;Temp;Humidity;BMP_temperature;BMP_pressure;BME280_temperature;BME280_humidity;BME280_pressure;Samples;Min_cycle;Max_cycle;Signal;HPM_P1;HPM_P2
2019/07/13 00:00:31;;;;;;;4.2;3.8;;;;;;;13.28;93.89648;94963.36;;;;
2019/07/13 00:01:40;;;;;;;4.2;3.8;;;;;;;13.28;93.89648;94963.36;;;;
2019/07/13 00:02:41;;;;;;;4.2;3.8;;;;;;;13.28;93.89648;94963.36;;;;
2019/07/13 00:03:43;;;;;;;4.2;3.8;;;;;;;13.28;93.89648;94963.36;;;;
2019/07/13 00:04:44;;;;;;;4.2;3.8;;;;;;;13.28;93.89648;94963.36;;;;
2019/07/13 00:05:45;;;;;;;4.2;3.8;;;;;;;13.28;93.89648;94963.36;;;;
2019/07/13 00:06:46;;;;;;;5;4.5;;;;;;;13.09;94.83008;94966.2;;;;
2019/07/13 00:07:47;;;;;;;5;4.5;;;;;;;13.09;94.83008;94966.2;;;;
2019/07/13 00:08:48;;;;;;;5;4.5;;;;;;;13.09;94.83008;94966.2;;;;
2019/07/13 00:09:49;;;;;;;5;4.5;;;;;;;13.09;94.83008;94966.2;;;;
2019/07/13 00:10:50;;;;;;;5;4.5;;;;;;;13.09;94.83008;94966.2;;;;
2019/07/13 00:11:51;;;;;;;5;4.5;;;;;;;13.09;94.83008;94966.2;;;;
2019/07/13 00:12:53;;;;;;;5;4.5;;;;;;;13.09;94.83008;94966.2;;;;
2019/07/13 00:13:54;;;;;;;5;4.5;;;;;;;13.09;94.83008;94966.2;;;;
2019/07/13 00:14:55;;;;;;;5;4.5;;;;;;;13.09;94.83008;94966.2;;;;
2019/07/13 00:15:56;;;;;;;5;4.5;;;;;;;13.09;94.83008;94966.2;;;;
2019/07/13 00:16:57;;;;;;;6.149999;4.95;;;;;;;13;95.83789;94977.09;;;;
2019/07/13 00:17:58;;;;;;;6.149999;4.95;;;;;;;13;95.83789;94977.09;;;;
2019/07/13 00:18:59;;;;;;;6.149999;4.95;;;;;;;13;95.83789;94977.09;;;;
2019/07/13 00:20:00;;;;;;;6.149999;4.95;;;;;;;13;95.83789;94977.09;;;;
2019/07/13 00:21:02;;;;;;;6.149999;4.95;;;;;;;13;95.83789;94977.09;;;;
2019/07/13 00:22:03;;;;;;;6.149999;4.95;;;;;;;13;95.83789;94977.09;;;;
2019/07/13 00:23:04;;;;;;;6.149999;4.95;;;;;;;13;95.83789;94977.09;;;;
2019/07/13 00:24:05;;;;;;;6.149999;4.95;;;;;;;13;95.83789;94977.09;;;;
2019/07/13 00:25:06;;;;;;;6.149999;4.95;;;;;;;13;95.83789;94977.09;;;;
2019/07/13 00:26:08;;;;;;;6.149999;4.95;;;;;;;13;95.83789;94977.09;;;;
2019/07/13 00:27:09;;;;;;;5.099999;4.7;;;;;;;12.89;96.38867;94998.52;;;;
2019/07/13 00:28:10;;;;;;;5.099999;4.7;;;;;;;12.89;96.38867;94998.52;;;;
2019/07/13 00:29:11;;;;;;;5.099999;4.7;;;;;;;12.89;96.38867;94998.52;;;;
2019/07/13 00:30:12;;;;;;;5.099999;4.7;;;;;;;12.89;96.38867;94998.52;;;;
2019/07/13 00:31:14;;;;;;;5.099999;4.7;;;;;;;12.89;96.38867;94998.52;;;;
2019/07/13 00:32:16;;;;;;;5.099999;4.7;;;;;;;12.89;96.38867;94998.52;;;;
2019/07/13 00:33:17;;;;;;;5.099999;4.7;;;;;;;12.89;96.38867;94998.52;;;;
2019/07/13 00:34:18;;;;;;;5.099999;4.7;;;;;;;12.89;96.38867;94998.52;;;;
2019/07/13 00:35:19;;;;;;;5.099999;4.7;;;;;;;12.89;96.38867;94998.52;;;;
2019/07/13 00:36:20;;;;;;;5.099999;4.7;;;;;;;12.89;96.38867;94998.52;;;;
2019/07/13 00:37:21;;;;;;;5.099999;4.7;;;;;;;12.89;96.38867;94998.52;;;;
2019/07/13 00:38:22;;;;;;;5.85;5.299999;;;;;;;12.87;97.03613;94997.96;;;;
2019/07/13 00:39:23;;;;;;;5.85;5.299999;;;;;;;12.87;97.03613;94997.96;;;;
2019/07/13 00:40:24;;;;;;;5.85;5.299999;;;;;;;12.87;97.03613;94997.96;;;;
2019/07/13 00:41:25;;;;;;;5.85;5.299999;;;;;;;12.87;97.03613;94997.96;;;;
2019/07/13 00:42:26;;;;;;;5.85;5.299999;;;;;;;12.87;97.03613;94997.96;;;;
2019/07/13 00:43:28;;;;;;;5.85;5.299999;;;;;;;12.87;97.03613;94997.96;;;;
2019/07/13 00:44:29;;;;;;;5.85;5.299999;;;;;;;12.87;97.03613;94997.96;;;;
2019/07/13 00:45:30;;;;;;;5.85;5.299999;;;;;;;12.87;97.03613;94997.96;;;;
2019/07/13 00:46:31;;;;;;;5.85;5.299999;;;;;;;12.87;97.03613;94997.96;;;;
2019/07/13 00:47:32;;;;;;;5.85;5.299999;;;;;;;12.87;97.03613;94997.96;;;;
2019/07/13 00:48:33;;;;;;;5.950001;5.450001;;;;;;;12.93;97.44824;95017.11;;;;
2019/07/13 00:49:35;;;;;;;5.950001;5.450001;;;;;;;12.93;97.44824;95017.11;;;;
2019/07/13 00:50:36;;;;;;;5.950001;5.450001;;;;;;;12.93;97.44824;95017.11;;;;
2019/07/13 00:51:37;;;;;;;5.950001;5.450001;;;;;;;12.93;97.44824;95017.11;;;;
2019/07/13 00:52:38;;;;;;;5.950001;5.450001;;;;;;;12.93;97.44824;95017.11;;;;
2019/07/13 00:53:39;;;;;;;5.950001;5.450001;;;;;;;12.93;97.44824;95017.11;;;;
2019/07/13 00:54:40;;;;;;;5.950001;5.450001;;;;;;;12.93;97.44824;95017.11;;;;
2019/07/13 00:55:41;;;;;;;5.950001;5.450001;;;;;;;12.93;97.44824;95017.11;;;;
2019/07/13 00:56:42;;;;;;;5.950001;5.450001;;;;;;;12.93;97.44824;95017.11;;;;
2019/07/13 00:57:43;;;;;;;5.950001;5.450001;;;;;;;12.93;97.44824;95017.11;;;;
2019/07/13 00:58:44;;;;;;;5.950001;5.450001;;;;;;;12.93;97.44824;95017.11;;;;
2019/07/13 00:59:45;;;;;;;7;6.400001;;;;;;;13.02;98.41602;95021.13;;;;
2019/07/13 01:00:47;;;;;;;7;6.400001;;;;;;;13.02;98.41602;95021.13;;;;
2019/07/13 01:01:48;;;;;;;7;6.400001;;;;;;;13.02;98.41602;95021.13;;;;
2019/07/13 01:02:49;;;;;;;7;6.400001;;;;;;;13.02;98.41602;95021.13;;;;
2019/07/13 01:03:50;;;;;;;7;6.400001;;;;;;;13.02;98.41602;95021.13;;;;
2019/07/13 01:04:51;;;;;;;7;6.400001;;;;;;;13.02;98.41602;95021.13;;;;
2019/07/13 01:05:52;;;;;;;7;6.400001;;;;;;;13.02;98.41602;95021.13;;;;
2019/07/13 01:06:53;;;;;;;7;6.400001;;;;;;;13.02;98.41602;95021.13;;;;
2019/07/13 01:07:55;;;;;;;7;6.400001;;;;;;;13.02;98.41602;95021.13;;;;
2019/07/13 01:08:56;;;;;;;7;6.400001;;;;;;;13.02;98.41602;95021.13;;;;
2019/07/13 01:09:57;;;;;;;6.6;5.900001;;;;;;;13.05;98.58691;95006.98;;;;
2019/07/13 01:10:59;;;;;;;6.6;5.900001;;;;;;;13.05;98.58691;95006.98;;;;
2019/07/13 01:12:00;;;;;;;6.6;5.900001;;;;;;;13.05;98.58691;95006.98;;;;
2019/07/13 01:13:01;;;;;;;6.6;5.900001;;;;;;;13.05;98.58691;95006.98;;;;
2019/07/13 01:14:02;;;;;;;6.6;5.900001;;;;;;;13.05;98.58691;95006.98;;;;
2019/07/13 01:15:03;;;;;;;6.6;5.900001;;;;;;;13.05;98.58691;95006.98;;;;
2019/07/13 01:16:05;;;;;;;6.6;5.900001;;;;;;;13.05;98.58691;95006.98;;;;
2019/07/13 01:17:06;;;;;;;6.6;5.900001;;;;;;;13.05;98.58691;95006.98;;;;
2019/07/13 01:18:07;;;;;;;6.6;5.900001;;;;;;;13.05;98.58691;95006.98;;;;
2019/07/13 01:19:09;;;;;;;6.6;5.900001;;;;;;;13.05;98.58691;95006.98;;;;
2019/07/13 01:20:10;;;;;;;6.249999;5.649999;;;;;;;13.16;98.90723;95000.69;;;;
2019/07/13 01:21:11;;;;;;;6.249999;5.649999;;;;;;;13.16;98.90723;95000.69;;;;
2019/07/13 01:22:12;;;;;;;6.249999;5.649999;;;;;;;13.16;98.90723;95000.69;;;;
2019/07/13 01:23:13;;;;;;;6.249999;5.649999;;;;;;;13.16;98.90723;95000.69;;;;
2019/07/13 01:24:15;;;;;;;6.249999;5.649999;;;;;;;13.16;98.90723;95000.69;;;;
2019/07/13 01:25:16;;;;;;;6.249999;5.649999;;;;;;;13.16;98.90723;95000.69;;;;
2019/07/13 01:26:17;;;;;;;6.249999;5.649999;;;;;;;13.16;98.90723;95000.69;;;;
2019/07/13 01:27:18;;;;;;;6.249999;5.649999;;;;;;;13.16;98.90723;95000.69;;;;
2019/07/13 01:28:20;;;;;;;6.249999;5.649999;;;;;;;13.16;98.90723;95000.69;;;;
2019/07/13 01:29:21;;;;;;;6.249999;5.649999;;;;;;;13.16;98.90723;95000.69;;;;
2019/07/13 01:30:22;;;;;;;6.249999;5.649999;;;;;;;13.16;98.90723;95000.69;;;;
2019/07/13 01:31:25;;;;;;;7;6.2;;;;;;;13.18;98.9668;94992.17;;;;
2019/07/13 01:32:26;;;;;;;7;6.2;;;;;;;13.18;98.9668;94992.17;;;;
2019/07/13 01:33:27;;;;;;;7;6.2;;;;;;;13.18;98.9668;94992.17;;;;
2019/07/13 01:34:28;;;;;;;7;6.2;;;;;;;13.18;98.9668;94992.17;;;;
2019/07/13 01:35:29;;;;;;;7;6.2;;;;;;;13.18;98.9668;94992.17;;;;
2019/07/13 01:36:31;;;;;;;7;6.2;;;;;;;13.18;98.9668;94992.17;;;;
2019/07/13 01:37:32;;;;;;;7;6.2;;;;;;;13.18;98.9668;94992.17;;;;
2019/07/13 01:38:33;;;;;;;7;6.2;;;;;;;13.18;98.9668;94992.17;;;;
2019/07/13 01:39:34;;;;;;;7;6.2;;;;;;;13.18;98.9668;94992.17;;;;
2019/07/13 01:40:36;;;;;;;7;6.2;;;;;;;13.18;98.9668;94992.17;;;;
2019/07/13 01:41:37;;;;;;;6.249999;5.649999;;;;;;;13.25;99.52637;94991.41;;;;
2019/07/13 01:42:38;;;;;;;6.249999;5.649999;;;;;;;13.25;99.52637;94991.41;;;;
2019/07/13 01:43:39;;;;;;;6.249999;5.649999;;;;;;;13.25;99.52637;94991.41;;;;
2019/07/13 01:44:40;;;;;;;6.249999;5.649999;;;;;;;13.25;99.52637;94991.41;;;;
2019/07/13 01:45:41;;;;;;;6.249999;5.649999;;;;;;;13.25;99.52637;94991.41;;;;
2019/07/13 01:46:42;;;;;;;6.249999;5.649999;;;;;;;13.25;99.52637;94991.41;;;;
2019/07/13 01:47:43;;;;;;;6.249999;5.649999;;;;;;;13.25;99.52637;94991.41;;;;
2019/07/13 01:48:45;;;;;;;6.249999;5.649999;;;;;;;13.25;99.52637;94991.41;;;;
2019/07/13 01:49:46;;;;;;;6.249999;5.649999;;;;;;;13.25;99.52637;94991.41;;;;
2019/07/13 01:50:47;;;;;;;6.249999;5.649999;;;;;;;13.25;99.52637;94991.41;;;;
2019/07/13 01:51:48;;;;;;;6.249999;5.649999;;;;;;;13.25;99.52637;94991.41;;;;
2019/07/13 01:52:50;;;;;;;6.600001;5.95;;;;;;;13.28;99.76758;95010.8;;;;
2019/07/13 01:53:51;;;;;;;6.600001;5.95;;;;;;;13.28;99.76758;95010.8;;;;
2019/07/13 01:54:52;;;;;;;6.600001;5.95;;;;;;;13.28;99.76758;95010.8;;;;
2019/07/13 01:55:53;;;;;;;6.600001;5.95;;;;;;;13.28;99.76758;95010.8;;;;
2019/07/13 01:56:54;;;;;;;6.600001;5.95;;;;;;;13.28;99.76758;95010.8;;;;
2019/07/13 01:57:56;;;;;;;6.600001;5.95;;;;;;;13.28;99.76758;95010.8;;;;
2019/07/13 01:58:57;;;;;;;6.600001;5.95;;;;;;;13.28;99.76758;95010.8;;;;
2019/07/13 01:59:58;;;;;;;6.600001;5.95;;;;;;;13.28;99.76758;95010.8;;;;
2019/07/13 02:00:59;;;;;;;6.600001;5.95;;;;;;;13.28;99.76758;95010.8;;;;
2019/07/13 02:02:01;;;;;;;6.600001;5.95;;;;;;;13.28;99.76758;95010.8;;;;
2019/07/13 02:03:02;;;;;;;6.55;5.85;;;;;;;13.39;100;94994.37;;;;
2019/07/13 02:04:03;;;;;;;6.55;5.85;;;;;;;13.39;100;94994.37;;;;
2019/07/13 02:05:04;;;;;;;6.55;5.85;;;;;;;13.39;100;94994.37;;;;
2019/07/13 02:06:06;;;;;;;6.55;5.85;;;;;;;13.39;100;94994.37;;;;
2019/07/13 02:07:07;;;;;;;6.55;5.85;;;;;;;13.39;100;94994.37;;;;
2019/07/13 02:08:08;;;;;;;6.55;5.85;;;;;;;13.39;100;94994.37;;;;
2019/07/13 02:09:10;;;;;;;6.55;5.85;;;;;;;13.39;100;94994.37;;;;
2019/07/13 02:10:11;;;;;;;6.55;5.85;;;;;;;13.39;100;94994.37;;;;
2019/07/13 02:11:13;;;;;;;6.55;5.85;;;;;;;13.39;100;94994.37;;;;
2019/07/13 02:12:14;;;;;;;6.55;5.85;;;;;;;13.39;100;94994.37;;;;
2019/07/13 02:13:15;;;;;;;7.150001;6.450001;;;;;;;13.39;100;94994.48;;;;
2019/07/13 02:14:16;;;;;;;7.150001;6.450001;;;;;;;13.39;100;94994.48;;;;
2019/07/13 02:15:17;;;;;;;7.150001;6.450001;;;;;;;13.39;100;94994.48;;;;
2019/07/13 02:16:19;;;;;;;7.150001;6.450001;;;;;;;13.39;100;94994.48;;;;
2019/07/13 02:17:20;;;;;;;7.150001;6.450001;;;;;;;13.39;100;94994.48;;;;
2019/07/13 02:18:21;;;;;;;7.150001;6.450001;;;;;;;13.39;100;94994.48;;;;
2019/07/13 02:19:22;;;;;;;7.150001;6.450001;;;;;;;13.39;100;94994.48;;;;
2019/07/13 02:20:24;;;;;;;7.150001;6.450001;;;;;;;13.39;100;94994.48;;;;
2019/07/13 02:21:25;;;;;;;7.150001;6.450001;;;;;;;13.39;100;94994.48;;;;
2019/07/13 02:22:26;;;;;;;7.150001;6.450001;;;;;;;13.39;100;94994.48;;;;
2019/07/13 02:23:27;;;;;;;7.150001;6.450001;;;;;;;13.39;100;94994.48;;;;
2019/07/13 02:24:28;;;;;;;6.85;6.15;;;;;;;13.49;100;95023.05;;;;
2019/07/13 02:25:30;;;;;;;6.85;6.15;;;;;;;13.49;100;95023.05;;;;
2019/07/13 02:26:32;;;;;;;6.85;6.15;;;;;;;13.49;100;95023.05;;;;
2019/07/13 02:27:33;;;;;;;6.85;6.15;;;;;;;13.49;100;95023.05;;;;
2019/07/13 02:28:35;;;;;;;6.85;6.15;;;;;;;13.49;100;95023.05;;;;
2019/07/13 02:29:36;;;;;;;6.85;6.15;;;;;;;13.49;100;95023.05;;;;
2019/07/13 02:30:37;;;;;;;6.85;6.15;;;;;;;13.49;100;95023.05;;;;
2019/07/13 02:31:51;;;;;;;6.85;6.15;;;;;;;13.49;100;95023.05;;;;
2019/07/13 02:32:53;;;;;;;6.85;6.15;;;;;;;13.49;100;95023.05;;;;
2019/07/13 02:33:54;;;;;;;6.85;6.15;;;;;;;13.49;100;95023.05;;;;
2019/07/13 02:34:55;;;;;;;6.700001;6.099999;;;;;;;13.59;100;95027.59;;;;
2019/07/13 02:35:56;;;;;;;6.700001;6.099999;;;;;;;13.59;100;95027.59;;;;
2019/07/13 02:36:57;;;;;;;6.700001;6.099999;;;;;;;13.59;100;95027.59;;;;
2019/07/13 02:37:58;;;;;;;6.700001;6.099999;;;;;;;13.59;100;95027.59;;;;
2019/07/13 02:38:59;;;;;;;6.700001;6.099999;;;;;;;13.59;100;95027.59;;;;
2019/07/13 02:40:01;;;;;;;6.700001;6.099999;;;;;;;13.59;100;95027.59;;;;
2019/07/13 02:41:03;;;;;;;6.700001;6.099999;;;;;;;13.59;100;95027.59;;;;
2019/07/13 02:42:04;;;;;;;6.700001;6.099999;;;;;;;13.59;100;95027.59;;;;
2019/07/13 02:43:05;;;;;;;6.700001;6.099999;;;;;;;13.59;100;95027.59;;;;
2019/07/13 02:44:06;;;;;;;6.700001;6.099999;;;;;;;13.59;100;95027.59;;;;
2019/07/13 02:45:08;;;;;;;7;6.299999;;;;;;;13.73;100;95017.5;;;;
2019/07/13 02:46:09;;;;;;;7;6.299999;;;;;;;13.73;100;95017.5;;;;
2019/07/13 02:47:10;;;;;;;7;6.299999;;;;;;;13.73;100;95017.5;;;;
2019/07/13 02:48:11;;;;;;;7;6.299999;;;;;;;13.73;100;95017.5;;;;
2019/07/13 02:49:12;;;;;;;7;6.299999;;;;;;;13.73;100;95017.5;;;;
2019/07/13 02:50:14;;;;;;;7;6.299999;;;;;;;13.73;100;95017.5;;;;
2019/07/13 02:51:31;;;;;;;7;6.299999;;;;;;;13.73;100;95017.5;;;;
2019/07/13 02:52:32;;;;;;;7;6.299999;;;;;;;13.73;100;95017.5;;;;
2019/07/13 02:53:33;;;;;;;7;6.299999;;;;;;;13.73;100;95017.5;;;;
2019/07/13 02:54:35;;;;;;;7;6.299999;;;;;;;13.73;100;95017.5;;;;
2019/07/13 02:55:36;;;;;;;6.55;5.950001;;;;;;;13.75;100;95029.86;;;;
2019/07/13 02:56:37;;;;;;;6.55;5.950001;;;;;;;13.75;100;95029.86;;;;
2019/07/13 02:57:38;;;;;;;6.55;5.950001;;;;;;;13.75;100;95029.86;;;;
2019/07/13 02:58:39;;;;;;;6.55;5.950001;;;;;;;13.75;100;95029.86;;;;
2019/07/13 02:59:40;;;;;;;6.55;5.950001;;;;;;;13.75;100;95029.86;;;;
2019/07/13 03:00:41;;;;;;;6.55;5.950001;;;;;;;13.75;100;95029.86;;;;
2019/07/13 03:01:45;;;;;;;6.55;5.950001;;;;;;;13.75;100;95029.86;;;;
2019/07/13 03:02:46;;;;;;;6.55;5.950001;;;;;;;13.75;100;95029.86;;;;
2019/07/13 03:03:48;;;;;;;6.55;5.950001;;;;;;;13.75;100;95029.86;;;;
2019/07/13 03:04:49;;;;;;;6.55;5.950001;;;;;;;13.75;100;95029.86;;;;
2019/07/13 03:05:50;;;;;;;6.55;5.950001;;;;;;;13.75;100;95029.86;;;;
2019/07/13 03:06:51;;;;;;;5.85;5.35;;;;;;;13.84;100;95023.28;;;;
2019/07/13 03:07:52;;;;;;;5.85;5.35;;;;;;;13.84;100;95023.28;;;;
2019/07/13 03:08:53;;;;;;;5.85;5.35;;;;;;;13.84;100;95023.28;;;;
2019/07/13 03:09:54;;;;;;;5.85;5.35;;;;;;;13.84;100;95023.28;;;;
2019/07/13 03:10:55;;;;;;;5.85;5.35;;;;;;;13.84;100;95023.28;;;;
2019/07/13 03:11:57;;;;;;;5.85;5.35;;;;;;;13.84;100;95023.28;;;;
2019/07/13 03:12:58;;;;;;;5.85;5.35;;;;;;;13.84;100;95023.28;;;;
2019/07/13 03:13:59;;;;;;;5.85;5.35;;;;;;;13.84;100;95023.28;;;;
2019/07/13 03:15:00;;;;;;;5.85;5.35;;;;;;;13.84;100;95023.28;;;;
2019/07/13 03:16:01;;;;;;;5.85;5.35;;;;;;;13.84;100;95023.28;;;;
2019/07/13 03:17:02;;;;;;;5.65;5.15;;;;;;;13.83;100;95026.67;;;;
2019/07/13 03:18:03;;;;;;;5.65;5.15;;;;;;;13.83;100;95026.67;;;;
2019/07/13 03:19:04;;;;;;;5.65;5.15;;;;;;;13.83;100;95026.67;;;;
2019/07/13 03:20:05;;;;;;;5.65;5.15;;;;;;;13.83;100;95026.67;;;;
2019/07/13 03:21:07;;;;;;;5.65;5.15;;;;;;;13.83;100;95026.67;;;;
2019/07/13 03:22:08;;;;;;;5.65;5.15;;;;;;;13.83;100;95026.67;;;;
2019/07/13 03:23:10;;;;;;;5.65;5.15;;;;;;;13.83;100;95026.67;;;;
2019/07/13 03:24:11;;;;;;;5.65;5.15;;;;;;;13.83;100;95026.67;;;;
2019/07/13 03:25:12;;;;;;;5.65;5.15;;;;;;;13.83;100;95026.67;;;;
2019/07/13 03:26:13;;;;;;;5.65;5.15;;;;;;;13.83;100;95026.67;;;;
2019/07/13 03:27:14;;;;;;;5.65;5.15;;;;;;;13.83;100;95026.67;;;;
2019/07/13 03:28:15;;;;;;;5.149999;4.649999;;;;;;;13.88;100;95023.86;;;;
2019/07/13 03:29:16;;;;;;;5.149999;4.649999;;;;;;;13.88;100;95023.86;;;;
2019/07/13 03:30:17;;;;;;;5.149999;4.649999;;;;;;;13.88;100;95023.86;;;;
2019/07/13 03:31:20;;;;;;;5.149999;4.649999;;;;;;;13.88;100;95023.86;;;;
2019/07/13 03:32:21;;;;;;;5.149999;4.649999;;;;;;;13.88;100;95023.86;;;;
2019/07/13 03:33:22;;;;;;;5.149999;4.649999;;;;;;;13.88;100;95023.86;;;;
2019/07/13 03:34:23;;;;;;;5.149999;4.649999;;;;;;;13.88;100;95023.86;;;;
2019/07/13 03:35:24;;;;;;;5.149999;4.649999;;;;;;;13.88;100;95023.86;;;;
2019/07/13 03:36:25;;;;;;;5.149999;4.649999;;;;;;;13.88;100;95023.86;;;;
2019/07/13 03:37:26;;;;;;;5.149999;4.649999;;;;;;;13.88;100;95023.86;;;;
2019/07/13 03:38:27;;;;;;;6.15;4.35;;;;;;;13.87;100;95032.28;;;;
2019/07/13 03:39:28;;;;;;;6.15;4.35;;;;;;;13.87;100;95032.28;;;;
2019/07/13 03:40:30;;;;;;;6.15;4.35;;;;;;;13.87;100;95032.28;;;;
2019/07/13 03:41:31;;;;;;;6.15;4.35;;;;;;;13.87;100;95032.28;;;;
2019/07/13 03:42:32;;;;;;;6.15;4.35;;;;;;;13.87;100;95032.28;;;;
2019/07/13 03:43:33;;;;;;;6.15;4.35;;;;;;;13.87;100;95032.28;;;;
2019/07/13 03:44:34;;;;;;;6.15;4.35;;;;;;;13.87;100;95032.28;;;;
2019/07/13 03:45:35;;;;;;;6.15;4.35;;;;;;;13.87;100;95032.28;;;;
2019/07/13 03:46:36;;;;;;;6.15;4.35;;;;;;;13.87;100;95032.28;;;;
2019/07/13 03:47:37;;;;;;;6.15;4.35;;;;;;;13.87;100;95032.28;;;;
2019/07/13 03:48:38;;;;;;;6.1;4.75;;;;;;;13.93;100;95033.51;;;;
2019/07/13 03:49:40;;;;;;;6.1;4.75;;;;;;;13.93;100;95033.51;;;;
2019/07/13 03:50:41;;;;;;;6.1;4.75;;;;;;;13.93;100;95033.51;;;;
2019/07/13 03:51:42;;;;;;;6.1;4.75;;;;;;;13.93;100;95033.51;;;;
2019/07/13 03:52:43;;;;;;;6.1;4.75;;;;;;;13.93;100;95033.51;;;;
2019/07/13 03:53:44;;;;;;;6.1;4.75;;;;;;;13.93;100;95033.51;;;;
2019/07/13 03:54:45;;;;;;;6.1;4.75;;;;;;;13.93;100;95033.51;;;;
2019/07/13 03:55:46;;;;;;;6.1;4.75;;;;;;;13.93;100;95033.51;;;;
2019/07/13 03:56:47;;;;;;;6.1;4.75;;;;;;;13.93;100;95033.51;;;;
2019/07/13 03:57:48;;;;;;;6.1;4.75;;;;;;;13.93;100;95033.51;;;;
2019/07/13 03:58:49;;;;;;;6.1;4.75;;;;;;;13.93;100;95033.51;;;;
2019/07/13 03:59:50;;;;;;;5.299999;4.45;;;;;;;13.95;100;95028.64;;;;
2019/07/13 04:00:51;;;;;;;5.299999;4.45;;;;;;;13.95;100;95028.64;;;;
2019/07/13 04:02:08;;;;;;;5.299999;4.45;;;;;;;13.95;100;95028.64;;;;
2019/07/13 04:03:09;;;;;;;5.299999;4.45;;;;;;;13.95;100;95028.64;;;;
2019/07/13 04:04:11;;;;;;;5.299999;4.45;;;;;;;13.95;100;95028.64;;;;
2019/07/13 04:05:12;;;;;;;5.299999;4.45;;;;;;;13.95;100;95028.64;;;;
2019/07/13 04:06:13;;;;;;;5.299999;4.45;;;;;;;13.95;100;95028.64;;;;
2019/07/13 04:07:14;;;;;;;5.299999;4.45;;;;;;;13.95;100;95028.64;;;;
2019/07/13 04:08:15;;;;;;;5.299999;4.45;;;;;;;13.95;100;95028.64;;;;
2019/07/13 04:09:16;;;;;;;5.299999;4.45;;;;;;;13.95;100;95028.64;;;;
2019/07/13 04:10:17;;;;;;;8.699999;5.9;;;;;;;14.04;100;95027.47;;;;
2019/07/13 04:11:19;;;;;;;8.699999;5.9;;;;;;;14.04;100;95027.47;;;;
2019/07/13 04:12:20;;;;;;;8.699999;5.9;;;;;;;14.04;100;95027.47;;;;
2019/07/13 04:13:21;;;;;;;8.699999;5.9;;;;;;;14.04;100;95027.47;;;;
2019/07/13 04:14:22;;;;;;;8.699999;5.9;;;;;;;14.04;100;95027.47;;;;
2019/07/13 04:15:24;;;;;;;8.699999;5.9;;;;;;;14.04;100;95027.47;;;;
2019/07/13 04:16:25;;;;;;;8.699999;5.9;;;;;;;14.04;100;95027.47;;;;
2019/07/13 04:17:26;;;;;;;8.699999;5.9;;;;;;;14.04;100;95027.47;;;;
2019/07/13 04:18:27;;;;;;;8.699999;5.9;;;;;;;14.04;100;95027.47;;;;
2019/07/13 04:19:28;;;;;;;8.699999;5.9;;;;;;;14.04;100;95027.47;;;;
2019/07/13 04:20:29;;;;;;;6.249999;5.65;;;;;;;13.88;100;95049.66;;;;
2019/07/13 04:21:30;;;;;;;6.249999;5.65;;;;;;;13.88;100;95049.66;;;;
2019/07/13 04:22:31;;;;;;;6.249999;5.65;;;;;;;13.88;100;95049.66;;;;
2019/07/13 04:23:32;;;;;;;6.249999;5.65;;;;;;;13.88;100;95049.66;;;;
2019/07/13 04:24:33;;;;;;;6.249999;5.65;;;;;;;13.88;100;95049.66;;;;
2019/07/13 04:25:34;;;;;;;6.249999;5.65;;;;;;;13.88;100;95049.66;;;;
2019/07/13 04:26:35;;;;;;;6.249999;5.65;;;;;;;13.88;100;95049.66;;;;
2019/07/13 04:27:37;;;;;;;6.249999;5.65;;;;;;;13.88;100;95049.66;;;;
2019/07/13 04:28:38;;;;;;;6.249999;5.65;;;;;;;13.88;100;95049.66;;;;
2019/07/13 04:29:39;;;;;;;6.249999;5.65;;;;;;;13.88;100;95049.66;;;;
2019/07/13 04:30:40;;;;;;;6.249999;5.65;;;;;;;13.88;100;95049.66;;;;
2019/07/13 04:31:41;;;;;;;6.6;6.000001;;;;;;;13.85;100;95070.09;;;;
2019/07/13 04:32:42;;;;;;;6.6;6.000001;;;;;;;13.85;100;95070.09;;;;
2019/07/13 04:33:43;;;;;;;6.6;6.000001;;;;;;;13.85;100;95070.09;;;;
2019/07/13 04:34:44;;;;;;;6.6;6.000001;;;;;;;13.85;100;95070.09;;;;
2019/07/13 04:35:46;;;;;;;6.6;6.000001;;;;;;;13.85;100;95070.09;;;;
2019/07/13 04:36:47;;;;;;;6.6;6.000001;;;;;;;13.85;100;95070.09;;;;
2019/07/13 04:37:48;;;;;;;6.6;6.000001;;;;;;;13.85;100;95070.09;;;;
2019/07/13 04:38:49;;;;;;;6.6;6.000001;;;;;;;13.85;100;95070.09;;;;
2019/07/13 04:39:50;;;;;;;6.6;6.000001;;;;;;;13.85;100;95070.09;;;;
2019/07/13 04:40:51;;;;;;;6.6;6.000001;;;;;;;13.85;100;95070.09;;;;
2019/07/13 04:41:52;;;;;;;5.9;5.3;;;;;;;13.78;100;95078.2;;;;
2019/07/13 04:42:53;;;;;;;5.9;5.3;;;;;;;13.78;100;95078.2;;;;
2019/07/13 04:43:54;;;;;;;5.9;5.3;;;;;;;13.78;100;95078.2;;;;
2019/07/13 04:44:56;;;;;;;5.9;5.3;;;;;;;13.78;100;95078.2;;;;
2019/07/13 04:45:57;;;;;;;5.9;5.3;;;;;;;13.78;100;95078.2;;;;
2019/07/13 04:46:58;;;;;;;5.9;5.3;;;;;;;13.78;100;95078.2;;;;
2019/07/13 04:47:59;;;;;;;5.9;5.3;;;;;;;13.78;100;95078.2;;;;
2019/07/13 04:49:00;;;;;;;5.9;5.3;;;;;;;13.78;100;95078.2;;;;
2019/07/13 04:50:02;;;;;;;5.9;5.3;;;;;;;13.78;100;95078.2;;;;
2019/07/13 04:51:03;;;;;;;5.9;5.3;;;;;;;13.78;100;95078.2;;;;
2019/07/13 04:52:04;;;;;;;5.9;5.3;;;;;;;13.78;100;95078.2;;;;
2019/07/13 04:53:05;;;;;;;4.900001;4.45;;;;;;;13.71;100;95090.2;;;;
2019/07/13 04:54:06;;;;;;;4.900001;4.45;;;;;;;13.71;100;95090.2;;;;
2019/07/13 04:55:07;;;;;;;4.900001;4.45;;;;;;;13.71;100;95090.2;;;;
2019/07/13 04:56:09;;;;;;;4.900001;4.45;;;;;;;13.71;100;95090.2;;;;
2019/07/13 04:57:10;;;;;;;4.900001;4.45;;;;;;;13.71;100;95090.2;;;;
2019/07/13 04:58:11;;;;;;;4.900001;4.45;;;;;;;13.71;100;95090.2;;;;
2019/07/13 04:59:12;;;;;;;4.900001;4.45;;;;;;;13.71;100;95090.2;;;;
2019/07/13 05:00:13;;;;;;;4.900001;4.45;;;;;;;13.71;100;95090.2;;;;
2019/07/13 05:01:16;;;;;;;4.900001;4.45;;;;;;;13.71;100;95090.2;;;;
2019/07/13 05:02:17;;;;;;;4.900001;4.45;;;;;;;13.71;100;95090.2;;;;
2019/07/13 05:03:18;;;;;;;5.75;5.25;;;;;;;13.63;100;95091.12;;;;
2019/07/13 05:04:19;;;;;;;5.75;5.25;;;;;;;13.63;100;95091.12;;;;
2019/07/13 05:05:21;;;;;;;5.75;5.25;;;;;;;13.63;100;95091.12;;;;
2019/07/13 05:06:22;;;;;;;5.75;5.25;;;;;;;13.63;100;95091.12;;;;
2019/07/13 05:07:23;;;;;;;5.75;5.25;;;;;;;13.63;100;95091.12;;;;
2019/07/13 05:08:24;;;;;;;5.75;5.25;;;;;;;13.63;100;95091.12;;;;
2019/07/13 05:09:25;;;;;;;5.75;5.25;;;;;;;13.63;100;95091.12;;;;
2019/07/13 05:10:26;;;;;;;5.75;5.25;;;;;;;13.63;100;95091.12;;;;
2019/07/13 05:11:27;;;;;;;5.75;5.25;;;;;;;13.63;100;95091.12;;;;
2019/07/13 05:12:28;;;;;;;5.75;5.25;;;;;;;13.63;100;95091.12;;;;
2019/07/13 05:13:29;;;;;;;6.85;5.85;;;;;;;13.74;100;95099.2;;;;
2019/07/13 05:14:31;;;;;;;6.85;5.85;;;;;;;13.74;100;95099.2;;;;
2019/07/13 05:15:32;;;;;;;6.85;5.85;;;;;;;13.74;100;95099.2;;;;
2019/07/13 05:16:33;;;;;;;6.85;5.85;;;;;;;13.74;100;95099.2;;;;
2019/07/13 05:17:34;;;;;;;6.85;5.85;;;;;;;13.74;100;95099.2;;;;
2019/07/13 05:18:35;;;;;;;6.85;5.85;;;;;;;13.74;100;95099.2;;;;
2019/07/13 05:19:36;;;;;;;6.85;5.85;;;;;;;13.74;100;95099.2;;;;
2019/07/13 05:20:37;;;;;;;6.85;5.85;;;;;;;13.74;100;95099.2;;;;
2019/07/13 05:21:38;;;;;;;6.85;5.85;;;;;;;13.74;100;95099.2;;;;
2019/07/13 05:22:39;;;;;;;6.85;5.85;;;;;;;13.74;100;95099.2;;;;
2019/07/13 05:23:40;;;;;;;6.85;5.85;;;;;;;13.74;100;95099.2;;;;
2019/07/13 05:24:41;;;;;;;8;6.450001;;;;;;;13.8;100;95112.69;;;;
2019/07/13 05:25:43;;;;;;;8;6.450001;;;;;;;13.8;100;95112.69;;;;
2019/07/13 05:26:44;;;;;;;8;6.450001;;;;;;;13.8;100;95112.69;;;;
2019/07/13 05:27:45;;;;;;;8;6.450001;;;;;;;13.8;100;95112.69;;;;
2019/07/13 05:28:46;;;;;;;8;6.450001;;;;;;;13.8;100;95112.69;;;;
2019/07/13 05:29:47;;;;;;;8;6.450001;;;;;;;13.8;100;95112.69;;;;
2019/07/13 05:30:48;;;;;;;8;6.450001;;;;;;;13.8;100;95112.69;;;;
2019/07/13 05:31:50;;;;;;;8;6.450001;;;;;;;13.8;100;95112.69;;;;
2019/07/13 05:32:51;;;;;;;8;6.450001;;;;;;;13.8;100;95112.69;;;;
2019/07/13 05:33:52;;;;;;;8;6.450001;;;;;;;13.8;100;95112.69;;;;
2019/07/13 05:34:53;;;;;;;9.049999;7.199999;;;;;;;13.91;100;95112.48;;;;
2019/07/13 05:35:54;;;;;;;9.049999;7.199999;;;;;;;13.91;100;95112.48;;;;
2019/07/13 05:36:55;;;;;;;9.049999;7.199999;;;;;;;13.91;100;95112.48;;;;
2019/07/13 05:37:56;;;;;;;9.049999;7.199999;;;;;;;13.91;100;95112.48;;;;
2019/07/13 05:38:57;;;;;;;9.049999;7.199999;;;;;;;13.91;100;95112.48;;;;
2019/07/13 05:39:58;;;;;;;9.049999;7.199999;;;;;;;13.91;100;95112.48;;;;
2019/07/13 05:40:59;;;;;;;9.049999;7.199999;;;;;;;13.91;100;95112.48;;;;
2019/07/13 05:42:00;;;;;;;9.049999;7.199999;;;;;;;13.91;100;95112.48;;;;
2019/07/13 05:43:02;;;;;;;9.049999;7.199999;;;;;;;13.91;100;95112.48;;;;
2019/07/13 05:44:03;;;;;;;9.049999;7.199999;;;;;;;13.91;100;95112.48;;;;
2019/07/13 05:45:04;;;;;;;9.049999;7.199999;;;;;;;13.91;100;95112.48;;;;
2019/07/13 05:46:05;;;;;;;8.449999;7.45;;;;;;;14.12;100;95119.69;;;;
2019/07/13 05:47:07;;;;;;;8.449999;7.45;;;;;;;14.12;100;95119.69;;;;
2019/07/13 05:48:08;;;;;;;8.449999;7.45;;;;;;;14.12;100;95119.69;;;;
2019/07/13 05:49:09;;;;;;;8.449999;7.45;;;;;;;14.12;100;95119.69;;;;
2019/07/13 05:50:10;;;;;;;8.449999;7.45;;;;;;;14.12;100;95119.69;;;;
2019/07/13 05:51:11;;;;;;;8.449999;7.45;;;;;;;14.12;100;95119.69;;;;